sensor_id;sensor_type;location;lat;lon;timestamp;pressure;altitude;pressure_sealevel;temperature
5571;BMP180;2808;51.240;6.794;2023-08-06T00:01:32;99971.00;;;16.40
5571;BMP180;2808;51.240;6.794;2023-08-06T00:04:00;99974.00;;;16.40
5571;BMP180;2808;51.240;6.794;2023-08-06T00:06:28;99975.00;;;16.40
5571;BMP180;2808;51.240;6.794;2023-08-06T00:08:55;99961.00;;;16.40
5571;BMP180;2808;51.240;6.794;2023-08-06T00:11:23;99967.00;;;16.40
5571;BMP180;2808;51.240;6.794;2023-08-06T00:13:50;99968.00;;;16.40
5571;BMP180;2808;51.240;6.794;2023-08-06T00:16:17;99964.00;;;16.40
5571;BMP180;2808;51.240;6.794;2023-08-06T00:18:45;99949.00;;;16.30
5571;BMP180;2808;51.240;6.794;2023-08-06T00:21:13;99956.00;;;16.30
5571;BMP180;2808;51.240;6.794;2023-08-06T00:23:41;99947.00;;;16.20
5571;BMP180;2808;51.240;6.794;2023-08-06T00:26:08;99949.00;;;16.10
5571;BMP180;2808;51.240;6.794;2023-08-06T00:28:36;99952.00;;;16.10
5571;BMP180;2808;51.240;6.794;2023-08-06T00:31:03;99942.00;;;16.00
5571;BMP180;2808;51.240;6.794;2023-08-06T00:33:33;99939.00;;;16.00
5571;BMP180;2808;51.240;6.794;2023-08-06T00:36:01;99946.00;;;16.00
5571;BMP180;2808;51.240;6.794;2023-08-06T00:38:29;99932.00;;;15.90
5571;BMP180;2808;51.240;6.794;2023-08-06T00:40:57;99946.00;;;15.90
5571;BMP180;2808;51.240;6.794;2023-08-06T00:43:24;99942.00;;;15.90
5571;BMP180;2808;51.240;6.794;2023-08-06T00:45:52;99945.00;;;16.00
5571;BMP180;2808;51.240;6.794;2023-08-06T00:48:19;99950.00;;;15.90
5571;BMP180;2808;51.240;6.794;2023-08-06T00:50:47;99946.00;;;16.00
5571;BMP180;2808;51.240;6.794;2023-08-06T00:53:16;99948.00;;;16.00
5571;BMP180;2808;51.240;6.794;2023-08-06T00:55:45;99949.00;;;16.00
5571;BMP180;2808;51.240;6.794;2023-08-06T00:58:13;99954.00;;;16.10
5571;BMP180;2808;51.240;6.794;2023-08-06T01:00:41;99957.00;;;16.00
5571;BMP180;2808;51.240;6.794;2023-08-06T01:03:08;99943.00;;;16.00
5571;BMP180;2808;51.240;6.794;2023-08-06T01:05:36;99944.00;;;16.00
5571;BMP180;2808;51.240;6.794;2023-08-06T01:08:13;99944.00;;;16.00
5571;BMP180;2808;51.240;6.794;2023-08-06T01:10:51;99941.00;;;16.10
5571;BMP180;2808;51.240;6.794;2023-08-06T01:13:27;99937.00;;;16.10
5571;BMP180;2808;51.240;6.794;2023-08-06T01:15:59;99933.00;;;16.00
5571;BMP180;2808;51.240;6.794;2023-08-06T01:18:28;99928.00;;;16.10
5571;BMP180;2808;51.240;6.794;2023-08-06T01:20:57;99935.00;;;16.10
5571;BMP180;2808;51.240;6.794;2023-08-06T01:23:25;99930.00;;;16.10
5571;BMP180;2808;51.240;6.794;2023-08-06T01:25:59;99929.00;;;16.00
5571;BMP180;2808;51.240;6.794;2023-08-06T01:28:37;99942.00;;;16.10
5571;BMP180;2808;51.240;6.794;2023-08-06T01:31:10;99933.00;;;16.00
5571;BMP180;2808;51.240;6.794;2023-08-06T01:33:45;99925.00;;;16.00
5571;BMP180;2808;51.240;6.794;2023-08-06T01:36:16;99926.00;;;16.00
5571;BMP180;2808;51.240;6.794;2023-08-06T01:38:44;99929.00;;;16.10
5571;BMP180;2808;51.240;6.794;2023-08-06T01:41:12;99919.00;;;16.00
5571;BMP180;2808;51.240;6.794;2023-08-06T01:43:39;99933.00;;;16.10
5571;BMP180;2808;51.240;6.794;2023-08-06T01:46:07;99917.00;;;16.00
5571;BMP180;2808;51.240;6.794;2023-08-06T01:48:34;99922.00;;;15.90
5571;BMP180;2808;51.240;6.794;2023-08-06T01:51:05;99914.00;;;16.00
5571;BMP180;2808;51.240;6.794;2023-08-06T01:53:34;99912.00;;;16.00
5571;BMP180;2808;51.240;6.794;2023-08-06T01:56:02;99911.00;;;16.00
5571;BMP180;2808;51.240;6.794;2023-08-06T01:58:29;99916.00;;;16.00
5571;BMP180;2808;51.240;6.794;2023-08-06T02:00:57;99908.00;;;16.00
5571;BMP180;2808;51.240;6.794;2023-08-06T02:03:24;99906.00;;;16.00
5571;BMP180;2808;51.240;6.794;2023-08-06T02:05:52;99901.00;;;16.00
5571;BMP180;2808;51.240;6.794;2023-08-06T02:08:19;99909.00;;;16.00
5571;BMP180;2808;51.240;6.794;2023-08-06T02:10:48;99897.00;;;16.00
5571;BMP180;2808;51.240;6.794;2023-08-06T02:13:15;99906.00;;;15.90
5571;BMP180;2808;51.240;6.794;2023-08-06T02:15:43;99900.00;;;16.00
5571;BMP180;2808;51.240;6.794;2023-08-06T02:18:11;99899.00;;;16.00
5571;BMP180;2808;51.240;6.794;2023-08-06T02:20:38;99905.00;;;16.00
5571;BMP180;2808;51.240;6.794;2023-08-06T02:23:06;99908.00;;;16.10
5571;BMP180;2808;51.240;6.794;2023-08-06T02:25:33;99911.00;;;16.10
5571;BMP180;2808;51.240;6.794;2023-08-06T02:28:02;99899.00;;;16.10
5571;BMP180;2808;51.240;6.794;2023-08-06T02:30:30;99901.00;;;16.10
5571;BMP180;2808;51.240;6.794;2023-08-06T02:32:57;99897.00;;;16.10
5571;BMP180;2808;51.240;6.794;2023-08-06T02:35:24;99896.00;;;16.10
5571;BMP180;2808;51.240;6.794;2023-08-06T02:37:52;99889.00;;;16.10
5571;BMP180;2808;51.240;6.794;2023-08-06T02:40:19;99891.00;;;16.00
5571;BMP180;2808;51.240;6.794;2023-08-06T02:42:47;99890.00;;;16.00
5571;BMP180;2808;51.240;6.794;2023-08-06T02:45:15;99889.00;;;16.00
5571;BMP180;2808;51.240;6.794;2023-08-06T02:47:43;99890.00;;;16.00
5571;BMP180;2808;51.240;6.794;2023-08-06T02:50:10;99887.00;;;16.00
5571;BMP180;2808;51.240;6.794;2023-08-06T02:52:37;99882.00;;;16.00
5571;BMP180;2808;51.240;6.794;2023-08-06T02:55:06;99885.00;;;15.90
5571;BMP180;2808;51.240;6.794;2023-08-06T02:57:34;99881.00;;;15.90
5571;BMP180;2808;51.240;6.794;2023-08-06T03:00:01;99871.00;;;15.90
5571;BMP180;2808;51.240;6.794;2023-08-06T03:02:30;99870.00;;;15.90
5571;BMP180;2808;51.240;6.794;2023-08-06T03:04:57;99868.00;;;15.90
5571;BMP180;2808;51.240;6.794;2023-08-06T03:07:25;99872.00;;;15.90
5571;BMP180;2808;51.240;6.794;2023-08-06T03:09:52;99869.00;;;15.90
5571;BMP180;2808;51.240;6.794;2023-08-06T03:12:19;99864.00;;;15.90
5571;BMP180;2808;51.240;6.794;2023-08-06T03:14:47;99854.00;;;16.00
5571;BMP180;2808;51.240;6.794;2023-08-06T03:17:14;99860.00;;;16.00
5571;BMP180;2808;51.240;6.794;2023-08-06T03:19:43;99859.00;;;16.00
5571;BMP180;2808;51.240;6.794;2023-08-06T03:22:10;99851.00;;;15.90
5571;BMP180;2808;51.240;6.794;2023-08-06T03:24:37;99856.00;;;15.90
5571;BMP180;2808;51.240;6.794;2023-08-06T03:27:05;99868.00;;;15.90
5571;BMP180;2808;51.240;6.794;2023-08-06T03:29:33;99856.00;;;15.90
5571;BMP180;2808;51.240;6.794;2023-08-06T03:32:00;99867.00;;;15.90
5571;BMP180;2808;51.240;6.794;2023-08-06T03:34:27;99863.00;;;15.90
5571;BMP180;2808;51.240;6.794;2023-08-06T03:36:56;99851.00;;;15.90
5571;BMP180;2808;51.240;6.794;2023-08-06T03:39:25;99858.00;;;15.80
5571;BMP180;2808;51.240;6.794;2023-08-06T03:41:53;99846.00;;;15.80
5571;BMP180;2808;51.240;6.794;2023-08-06T03:44:20;99857.00;;;15.80
5571;BMP180;2808;51.240;6.794;2023-08-06T03:46:47;99854.00;;;15.80
5571;BMP180;2808;51.240;6.794;2023-08-06T03:49:15;99845.00;;;15.80
5571;BMP180;2808;51.240;6.794;2023-08-06T03:51:42;99853.00;;;15.80
5571;BMP180;2808;51.240;6.794;2023-08-06T03:54:11;99854.00;;;15.80
5571;BMP180;2808;51.240;6.794;2023-08-06T03:56:38;99851.00;;;15.80
5571;BMP180;2808;51.240;6.794;2023-08-06T03:59:05;99852.00;;;15.70
5571;BMP180;2808;51.240;6.794;2023-08-06T04:01:33;99849.00;;;15.70
5571;BMP180;2808;51.240;6.794;2023-08-06T04:04:00;99844.00;;;15.70
5571;BMP180;2808;51.240;6.794;2023-08-06T04:06:27;99839.00;;;15.70
5571;BMP180;2808;51.240;6.794;2023-08-06T04:08:55;99845.00;;;15.70
5571;BMP180;2808;51.240;6.794;2023-08-06T04:11:23;99847.00;;;15.70
5571;BMP180;2808;51.240;6.794;2023-08-06T04:13:51;99849.00;;;15.80
5571;BMP180;2808;51.240;6.794;2023-08-06T04:16:20;99852.00;;;15.80
5571;BMP180;2808;51.240;6.794;2023-08-06T04:18:47;99849.00;;;15.80
5571;BMP180;2808;51.240;6.794;2023-08-06T04:21:14;99848.00;;;15.90
5571;BMP180;2808;51.240;6.794;2023-08-06T04:23:42;99844.00;;;15.90
5571;BMP180;2808;51.240;6.794;2023-08-06T04:26:10;99846.00;;;15.90
5571;BMP180;2808;51.240;6.794;2023-08-06T04:28:38;99848.00;;;15.90
5571;BMP180;2808;51.240;6.794;2023-08-06T04:31:06;99849.00;;;15.90
5571;BMP180;2808;51.240;6.794;2023-08-06T04:33:33;99848.00;;;15.90
5571;BMP180;2808;51.240;6.794;2023-08-06T04:36:00;99837.00;;;15.90
5571;BMP180;2808;51.240;6.794;2023-08-06T04:38:28;99839.00;;;15.90
5571;BMP180;2808;51.240;6.794;2023-08-06T04:40:55;99843.00;;;15.90
5571;BMP180;2808;51.240;6.794;2023-08-06T04:43:23;99845.00;;;15.90
5571;BMP180;2808;51.240;6.794;2023-08-06T04:45:53;99845.00;;;15.90
5571;BMP180;2808;51.240;6.794;2023-08-06T04:48:20;99846.00;;;16.00
5571;BMP180;2808;51.240;6.794;2023-08-06T04:50:49;99853.00;;;16.00
5571;BMP180;2808;51.240;6.794;2023-08-06T04:53:17;99848.00;;;16.00
5571;BMP180;2808;51.240;6.794;2023-08-06T04:55:45;99844.00;;;16.00
5571;BMP180;2808;51.240;6.794;2023-08-06T04:58:13;99850.00;;;16.10
5571;BMP180;2808;51.240;6.794;2023-08-06T05:00:40;99852.00;;;16.10
5571;BMP180;2808;51.240;6.794;2023-08-06T05:03:09;99865.00;;;16.20
5571;BMP180;2808;51.240;6.794;2023-08-06T05:05:36;99857.00;;;16.30
5571;BMP180;2808;51.240;6.794;2023-08-06T05:08:04;99851.00;;;16.30
5571;BMP180;2808;51.240;6.794;2023-08-06T05:10:31;99847.00;;;16.30
5571;BMP180;2808;51.240;6.794;2023-08-06T05:12:59;99855.00;;;16.30
5571;BMP180;2808;51.240;6.794;2023-08-06T05:15:27;99858.00;;;16.40
5571;BMP180;2808;51.240;6.794;2023-08-06T05:17:54;99853.00;;;16.50
5571;BMP180;2808;51.240;6.794;2023-08-06T05:20:23;99856.00;;;16.70
5571;BMP180;2808;51.240;6.794;2023-08-06T05:22:50;99858.00;;;16.70
5571;BMP180;2808;51.240;6.794;2023-08-06T05:25:18;99863.00;;;16.80
5571;BMP180;2808;51.240;6.794;2023-08-06T05:27:47;99867.00;;;16.90
5571;BMP180;2808;51.240;6.794;2023-08-06T05:30:15;99854.00;;;17.30
5571;BMP180;2808;51.240;6.794;2023-08-06T05:32:43;99864.00;;;17.60
5571;BMP180;2808;51.240;6.794;2023-08-06T05:35:10;99862.00;;;18.00
5571;BMP180;2808;51.240;6.794;2023-08-06T05:37:39;99863.00;;;18.50
5571;BMP180;2808;51.240;6.794;2023-08-06T05:40:07;99859.00;;;18.70
5571;BMP180;2808;51.240;6.794;2023-08-06T05:42:35;99859.00;;;19.00
5571;BMP180;2808;51.240;6.794;2023-08-06T05:45:03;99869.00;;;19.10
5571;BMP180;2808;51.240;6.794;2023-08-06T05:47:30;99867.00;;;19.20
5571;BMP180;2808;51.240;6.794;2023-08-06T05:49:58;99873.00;;;19.50
5571;BMP180;2808;51.240;6.794;2023-08-06T05:52:25;99871.00;;;19.30
5571;BMP180;2808;51.240;6.794;2023-08-06T05:54:54;99872.00;;;19.00
5571;BMP180;2808;51.240;6.794;2023-08-06T05:57:22;99869.00;;;18.80
5571;BMP180;2808;51.240;6.794;2023-08-06T05:59:49;99872.00;;;18.60
5571;BMP180;2808;51.240;6.794;2023-08-06T06:02:16;99875.00;;;18.50
5571;BMP180;2808;51.240;6.794;2023-08-06T06:04:45;99875.00;;;18.40
5571;BMP180;2808;51.240;6.794;2023-08-06T06:07:12;99880.00;;;18.00
5571;BMP180;2808;51.240;6.794;2023-08-06T06:09:40;99888.00;;;17.70
5571;BMP180;2808;51.240;6.794;2023-08-06T06:12:09;99888.00;;;17.70
5571;BMP180;2808;51.240;6.794;2023-08-06T06:14:36;99883.00;;;17.60
5571;BMP180;2808;51.240;6.794;2023-08-06T06:17:04;99890.00;;;17.70
5571;BMP180;2808;51.240;6.794;2023-08-06T06:19:31;99888.00;;;17.70
5571;BMP180;2808;51.240;6.794;2023-08-06T06:21:58;99899.00;;;17.70
5571;BMP180;2808;51.240;6.794;2023-08-06T06:24:28;99901.00;;;17.60
5571;BMP180;2808;51.240;6.794;2023-08-06T06:26:55;99899.00;;;17.60
5571;BMP180;2808;51.240;6.794;2023-08-06T06:29:24;99904.00;;;17.70
5571;BMP180;2808;51.240;6.794;2023-08-06T06:31:51;99910.00;;;17.60
5571;BMP180;2808;51.240;6.794;2023-08-06T06:34:19;99911.00;;;17.60
5571;BMP180;2808;51.240;6.794;2023-08-06T06:36:46;99919.00;;;17.70
5571;BMP180;2808;51.240;6.794;2023-08-06T06:39:14;99915.00;;;17.70
5571;BMP180;2808;51.240;6.794;2023-08-06T06:41:41;99916.00;;;17.90
5571;BMP180;2808;51.240;6.794;2023-08-06T06:44:10;99910.00;;;18.10
5571;BMP180;2808;51.240;6.794;2023-08-06T06:46:39;99912.00;;;18.30
5571;BMP180;2808;51.240;6.794;2023-08-06T06:49:06;99912.00;;;18.60
5571;BMP180;2808;51.240;6.794;2023-08-06T06:51:33;99907.00;;;18.80
5571;BMP180;2808;51.240;6.794;2023-08-06T06:54:01;99914.00;;;19.00
5571;BMP180;2808;51.240;6.794;2023-08-06T06:56:28;99898.00;;;19.00
5571;BMP180;2808;51.240;6.794;2023-08-06T06:58:55;99908.00;;;18.90
5571;BMP180;2808;51.240;6.794;2023-08-06T07:01:23;99902.00;;;18.90
5571;BMP180;2808;51.240;6.794;2023-08-06T07:03:52;99918.00;;;18.80
5571;BMP180;2808;51.240;6.794;2023-08-06T07:06:19;99914.00;;;18.70
5571;BMP180;2808;51.240;6.794;2023-08-06T07:08:47;99918.00;;;18.70
5571;BMP180;2808;51.240;6.794;2023-08-06T07:11:14;99916.00;;;18.60
5571;BMP180;2808;51.240;6.794;2023-08-06T07:13:41;99919.00;;;18.60
5571;BMP180;2808;51.240;6.794;2023-08-06T07:16:09;99917.00;;;18.60
5571;BMP180;2808;51.240;6.794;2023-08-06T07:18:36;99921.00;;;18.70
5571;BMP180;2808;51.240;6.794;2023-08-06T07:21:05;99922.00;;;18.90
5571;BMP180;2808;51.240;6.794;2023-08-06T07:23:32;99918.00;;;19.00
5571;BMP180;2808;51.240;6.794;2023-08-06T07:25:59;99918.00;;;19.20
5571;BMP180;2808;51.240;6.794;2023-08-06T07:28:27;99920.00;;;19.20
5571;BMP180;2808;51.240;6.794;2023-08-06T07:30:54;99920.00;;;19.20
5571;BMP180;2808;51.240;6.794;2023-08-06T07:33:22;99919.00;;;19.30
5571;BMP180;2808;51.240;6.794;2023-08-06T07:35:49;99927.00;;;19.40
5571;BMP180;2808;51.240;6.794;2023-08-06T07:38:18;99927.00;;;19.30
5571;BMP180;2808;51.240;6.794;2023-08-06T07:40:48;99931.00;;;19.20
5571;BMP180;2808;51.240;6.794;2023-08-06T07:43:15;99932.00;;;19.30
5571;BMP180;2808;51.240;6.794;2023-08-06T07:45:43;99928.00;;;19.20
5571;BMP180;2808;51.240;6.794;2023-08-06T07:48:10;99927.00;;;19.40
5571;BMP180;2808;51.240;6.794;2023-08-06T07:50:37;99923.00;;;19.50
5571;BMP180;2808;51.240;6.794;2023-08-06T07:53:06;99926.00;;;19.60
5571;BMP180;2808;51.240;6.794;2023-08-06T07:55:35;99931.00;;;19.80
5571;BMP180;2808;51.240;6.794;2023-08-06T07:58:03;99933.00;;;20.10
5571;BMP180;2808;51.240;6.794;2023-08-06T08:00:30;99936.00;;;20.30
5571;BMP180;2808;51.240;6.794;2023-08-06T08:02:57;99937.00;;;20.40
5571;BMP180;2808;51.240;6.794;2023-08-06T08:05:25;99936.00;;;20.50
5571;BMP180;2808;51.240;6.794;2023-08-06T08:07:52;99936.00;;;20.60
5571;BMP180;2808;51.240;6.794;2023-08-06T08:10:22;99938.00;;;20.40
5571;BMP180;2808;51.240;6.794;2023-08-06T08:12:51;99938.00;;;20.40
5571;BMP180;2808;51.240;6.794;2023-08-06T08:15:18;99949.00;;;20.30
5571;BMP180;2808;51.240;6.794;2023-08-06T08:17:45;99943.00;;;20.50
5571;BMP180;2808;51.240;6.794;2023-08-06T08:20:16;99945.00;;;20.50
5571;BMP180;2808;51.240;6.794;2023-08-06T08:22:43;99938.00;;;20.50
5571;BMP180;2808;51.240;6.794;2023-08-06T08:25:10;99940.00;;;20.60
5571;BMP180;2808;51.240;6.794;2023-08-06T08:27:39;99946.00;;;20.80
5571;BMP180;2808;51.240;6.794;2023-08-06T08:30:09;99951.00;;;21.10
5571;BMP180;2808;51.240;6.794;2023-08-06T08:32:36;99947.00;;;21.30
5571;BMP180;2808;51.240;6.794;2023-08-06T08:35:04;99951.00;;;21.30
5571;BMP180;2808;51.240;6.794;2023-08-06T08:37:31;99944.00;;;21.20
5571;BMP180;2808;51.240;6.794;2023-08-06T08:39:59;99955.00;;;21.20
5571;BMP180;2808;51.240;6.794;2023-08-06T08:42:27;99949.00;;;21.20
5571;BMP180;2808;51.240;6.794;2023-08-06T08:44:55;99957.00;;;21.20
5571;BMP180;2808;51.240;6.794;2023-08-06T08:47:25;99954.00;;;21.10
5571;BMP180;2808;51.240;6.794;2023-08-06T08:49:54;99957.00;;;21.20
5571;BMP180;2808;51.240;6.794;2023-08-06T08:52:25;99955.00;;;21.30
5571;BMP180;2808;51.240;6.794;2023-08-06T08:54:57;99957.00;;;21.60
5571;BMP180;2808;51.240;6.794;2023-08-06T08:57:25;99956.00;;;21.70
5571;BMP180;2808;51.240;6.794;2023-08-06T08:59:53;99964.00;;;21.80
5571;BMP180;2808;51.240;6.794;2023-08-06T09:02:23;99960.00;;;21.80
5571;BMP180;2808;51.240;6.794;2023-08-06T09:04:52;99963.00;;;21.70
5571;BMP180;2808;51.240;6.794;2023-08-06T09:07:20;99964.00;;;21.70
5571;BMP180;2808;51.240;6.794;2023-08-06T09:09:49;99962.00;;;21.80
5571;BMP180;2808;51.240;6.794;2023-08-06T09:12:18;99972.00;;;21.90
5571;BMP180;2808;51.240;6.794;2023-08-06T09:14:45;99971.00;;;22.10
5571;BMP180;2808;51.240;6.794;2023-08-06T09:17:13;99968.00;;;22.40
5571;BMP180;2808;51.240;6.794;2023-08-06T09:19:43;99972.00;;;22.50
5571;BMP180;2808;51.240;6.794;2023-08-06T09:22:12;99967.00;;;22.70
5571;BMP180;2808;51.240;6.794;2023-08-06T09:24:41;99975.00;;;22.60
5571;BMP180;2808;51.240;6.794;2023-08-06T09:27:11;99983.00;;;22.30
5571;BMP180;2808;51.240;6.794;2023-08-06T09:29:42;99993.00;;;21.90
5571;BMP180;2808;51.240;6.794;2023-08-06T09:32:11;99999.00;;;21.40
5571;BMP180;2808;51.240;6.794;2023-08-06T09:34:41;100002.00;;;20.90
5571;BMP180;2808;51.240;6.794;2023-08-06T09:37:10;100010.00;;;20.50
5571;BMP180;2808;51.240;6.794;2023-08-06T09:39:39;100014.00;;;20.20
5571;BMP180;2808;51.240;6.794;2023-08-06T09:42:07;100013.00;;;20.00
5571;BMP180;2808;51.240;6.794;2023-08-06T09:44:35;100018.00;;;19.80
5571;BMP180;2808;51.240;6.794;2023-08-06T09:47:03;100021.00;;;19.70
5571;BMP180;2808;51.240;6.794;2023-08-06T09:49:42;100026.00;;;19.50
5571;BMP180;2808;51.240;6.794;2023-08-06T09:52:13;100031.00;;;19.30
5571;BMP180;2808;51.240;6.794;2023-08-06T09:54:43;100041.00;;;19.00
5571;BMP180;2808;51.240;6.794;2023-08-06T09:57:12;100036.00;;;18.90
5571;BMP180;2808;51.240;6.794;2023-08-06T09:59:42;100041.00;;;18.80
5571;BMP180;2808;51.240;6.794;2023-08-06T10:02:13;100038.00;;;18.60
5571;BMP180;2808;51.240;6.794;2023-08-06T10:04:41;100042.00;;;18.40
5571;BMP180;2808;51.240;6.794;2023-08-06T10:07:09;100050.00;;;18.30
5571;BMP180;2808;51.240;6.794;2023-08-06T10:09:39;100043.00;;;18.10
5571;BMP180;2808;51.240;6.794;2023-08-06T10:12:06;100051.00;;;18.00
5571;BMP180;2808;51.240;6.794;2023-08-06T10:14:36;100052.00;;;17.90
5571;BMP180;2808;51.240;6.794;2023-08-06T10:17:05;100057.00;;;17.70
5571;BMP180;2808;51.240;6.794;2023-08-06T10:19:34;100059.00;;;17.70
5571;BMP180;2808;51.240;6.794;2023-08-06T10:22:11;100052.00;;;17.60
5571;BMP180;2808;51.240;6.794;2023-08-06T10:24:54;100064.00;;;17.40
5571;BMP180;2808;51.240;6.794;2023-08-06T10:27:30;100061.00;;;17.30
5571;BMP180;2808;51.240;6.794;2023-08-06T10:30:21;100073.00;;;17.20
5571;BMP180;2808;51.240;6.794;2023-08-06T10:32:51;100077.00;;;17.20
5571;BMP180;2808;51.240;6.794;2023-08-06T10:35:34;100074.00;;;17.10
5571;BMP180;2808;51.240;6.794;2023-08-06T10:38:09;100078.00;;;17.10
5571;BMP180;2808;51.240;6.794;2023-08-06T10:40:40;100083.00;;;17.00
5571;BMP180;2808;51.240;6.794;2023-08-06T10:43:08;100081.00;;;16.90
5571;BMP180;2808;51.240;6.794;2023-08-06T10:45:51;100087.00;;;16.80
5571;BMP180;2808;51.240;6.794;2023-08-06T10:48:29;100096.00;;;16.70
5571;BMP180;2808;51.240;6.794;2023-08-06T10:50:58;100098.00;;;16.50
5571;BMP180;2808;51.240;6.794;2023-08-06T10:53:26;100097.00;;;16.40
5571;BMP180;2808;51.240;6.794;2023-08-06T10:55:55;100102.00;;;16.40
5571;BMP180;2808;51.240;6.794;2023-08-06T10:58:22;100105.00;;;16.30
5571;BMP180;2808;51.240;6.794;2023-08-06T11:00:50;100101.00;;;16.30
5571;BMP180;2808;51.240;6.794;2023-08-06T11:03:17;100113.00;;;16.30
5571;BMP180;2808;51.240;6.794;2023-08-06T11:05:49;100107.00;;;16.30
5571;BMP180;2808;51.240;6.794;2023-08-06T11:08:24;100118.00;;;16.30
5571;BMP180;2808;51.240;6.794;2023-08-06T11:10:52;100130.00;;;16.30
5571;BMP180;2808;51.240;6.794;2023-08-06T11:13:20;100125.00;;;16.30
5571;BMP180;2808;51.240;6.794;2023-08-06T11:15:53;100124.00;;;16.30
5571;BMP180;2808;51.240;6.794;2023-08-06T11:18:21;100130.00;;;16.20
5571;BMP180;2808;51.240;6.794;2023-08-06T11:20:48;100131.00;;;16.20
5571;BMP180;2808;51.240;6.794;2023-08-06T11:23:15;100123.00;;;16.20
5571;BMP180;2808;51.240;6.794;2023-08-06T11:25:44;100123.00;;;16.20
5571;BMP180;2808;51.240;6.794;2023-08-06T11:28:12;100121.00;;;16.30
5571;BMP180;2808;51.240;6.794;2023-08-06T11:30:41;100123.00;;;16.30
5571;BMP180;2808;51.240;6.794;2023-08-06T11:33:08;100125.00;;;16.30
5571;BMP180;2808;51.240;6.794;2023-08-06T11:35:36;100127.00;;;16.30
5571;BMP180;2808;51.240;6.794;2023-08-06T11:38:06;100134.00;;;16.20
5571;BMP180;2808;51.240;6.794;2023-08-06T11:40:36;100139.00;;;16.20
5571;BMP180;2808;51.240;6.794;2023-08-06T11:43:03;100130.00;;;16.20
5571;BMP180;2808;51.240;6.794;2023-08-06T11:45:35;100134.00;;;16.30
5571;BMP180;2808;51.240;6.794;2023-08-06T11:48:04;100147.00;;;16.30
5571;BMP180;2808;51.240;6.794;2023-08-06T11:50:35;100146.00;;;16.40
5571;BMP180;2808;51.240;6.794;2023-08-06T11:53:03;100150.00;;;16.30
5571;BMP180;2808;51.240;6.794;2023-08-06T11:55:31;100153.00;;;16.30
5571;BMP180;2808;51.240;6.794;2023-08-06T11:58:02;100154.00;;;16.30
5571;BMP180;2808;51.240;6.794;2023-08-06T12:00:30;100157.00;;;16.30
5571;BMP180;2808;51.240;6.794;2023-08-06T12:02:58;100152.00;;;16.30
5571;BMP180;2808;51.240;6.794;2023-08-06T12:05:31;100162.00;;;16.30
5571;BMP180;2808;51.240;6.794;2023-08-06T12:08:00;100160.00;;;16.30
5571;BMP180;2808;51.240;6.794;2023-08-06T12:10:30;100161.00;;;16.40
5571;BMP180;2808;51.240;6.794;2023-08-06T12:12:57;100166.00;;;16.30
5571;BMP180;2808;51.240;6.794;2023-08-06T12:15:25;100178.00;;;16.30
5571;BMP180;2808;51.240;6.794;2023-08-06T12:17:52;100172.00;;;16.30
5571;BMP180;2808;51.240;6.794;2023-08-06T12:20:20;100169.00;;;16.20
5571;BMP180;2808;51.240;6.794;2023-08-06T12:22:49;100182.00;;;16.20
5571;BMP180;2808;51.240;6.794;2023-08-06T12:25:16;100187.00;;;16.10
5571;BMP180;2808;51.240;6.794;2023-08-06T12:27:45;100171.00;;;16.10
5571;BMP180;2808;51.240;6.794;2023-08-06T12:30:13;100187.00;;;16.20
5571;BMP180;2808;51.240;6.794;2023-08-06T12:32:41;100183.00;;;16.20
5571;BMP180;2808;51.240;6.794;2023-08-06T12:35:09;100185.00;;;16.20
5571;BMP180;2808;51.240;6.794;2023-08-06T12:37:36;100189.00;;;16.30
5571;BMP180;2808;51.240;6.794;2023-08-06T12:40:07;100183.00;;;16.30
5571;BMP180;2808;51.240;6.794;2023-08-06T12:42:34;100187.00;;;16.40
5571;BMP180;2808;51.240;6.794;2023-08-06T12:45:02;100188.00;;;16.40
5571;BMP180;2808;51.240;6.794;2023-08-06T12:47:29;100191.00;;;16.40
5571;BMP180;2808;51.240;6.794;2023-08-06T12:49:57;100197.00;;;16.50
5571;BMP180;2808;51.240;6.794;2023-08-06T12:52:24;100189.00;;;16.50
5571;BMP180;2808;51.240;6.794;2023-08-06T12:54:52;100199.00;;;16.50
5571;BMP180;2808;51.240;6.794;2023-08-06T12:57:20;100210.00;;;16.60
5571;BMP180;2808;51.240;6.794;2023-08-06T12:59:48;100216.00;;;16.70
5571;BMP180;2808;51.240;6.794;2023-08-06T13:02:15;100224.00;;;16.70
5571;BMP180;2808;51.240;6.794;2023-08-06T13:04:45;100218.00;;;16.60
5571;BMP180;2808;51.240;6.794;2023-08-06T13:07:13;100209.00;;;16.60
5571;BMP180;2808;51.240;6.794;2023-08-06T13:09:40;100221.00;;;16.50
5571;BMP180;2808;51.240;6.794;2023-08-06T13:12:07;100224.00;;;16.60
5571;BMP180;2808;51.240;6.794;2023-08-06T13:14:36;100227.00;;;16.60
5571;BMP180;2808;51.240;6.794;2023-08-06T13:17:04;100229.00;;;16.60
5571;BMP180;2808;51.240;6.794;2023-08-06T13:19:32;100244.00;;;16.70
5571;BMP180;2808;51.240;6.794;2023-08-06T13:22:04;100239.00;;;16.80
5571;BMP180;2808;51.240;6.794;2023-08-06T13:24:33;100252.00;;;16.90
5571;BMP180;2808;51.240;6.794;2023-08-06T13:27:00;100253.00;;;16.90
5571;BMP180;2808;51.240;6.794;2023-08-06T13:29:29;100252.00;;;16.90
5571;BMP180;2808;51.240;6.794;2023-08-06T13:31:57;100252.00;;;17.00
5571;BMP180;2808;51.240;6.794;2023-08-06T13:34:25;100257.00;;;17.00
5571;BMP180;2808;51.240;6.794;2023-08-06T13:36:52;100258.00;;;17.10
5571;BMP180;2808;51.240;6.794;2023-08-06T13:39:20;100262.00;;;17.10
5571;BMP180;2808;51.240;6.794;2023-08-06T13:41:47;100270.00;;;17.10
5571;BMP180;2808;51.240;6.794;2023-08-06T13:44:15;100267.00;;;17.10
5571;BMP180;2808;51.240;6.794;2023-08-06T13:46:42;100265.00;;;17.10
5571;BMP180;2808;51.240;6.794;2023-08-06T13:49:11;100277.00;;;17.10
5571;BMP180;2808;51.240;6.794;2023-08-06T13:51:39;100273.00;;;17.10
5571;BMP180;2808;51.240;6.794;2023-08-06T13:54:06;100283.00;;;17.00
5571;BMP180;2808;51.240;6.794;2023-08-06T13:56:35;100281.00;;;17.00
5571;BMP180;2808;51.240;6.794;2023-08-06T13:59:04;100286.00;;;17.10
5571;BMP180;2808;51.240;6.794;2023-08-06T14:01:31;100278.00;;;17.10
5571;BMP180;2808;51.240;6.794;2023-08-06T14:03:59;100291.00;;;17.30
5571;BMP180;2808;51.240;6.794;2023-08-06T14:06:27;100290.00;;;17.30
5571;BMP180;2808;51.240;6.794;2023-08-06T14:08:55;100288.00;;;17.30
5571;BMP180;2808;51.240;6.794;2023-08-06T14:11:26;100284.00;;;17.40
5571;BMP180;2808;51.240;6.794;2023-08-06T14:13:53;100291.00;;;17.50
5571;BMP180;2808;51.240;6.794;2023-08-06T14:16:20;100287.00;;;17.60
5571;BMP180;2808;51.240;6.794;2023-08-06T14:18:48;100295.00;;;17.60
5571;BMP180;2808;51.240;6.794;2023-08-06T14:21:17;100305.00;;;17.70
5571;BMP180;2808;51.240;6.794;2023-08-06T14:23:46;100306.00;;;17.80
5571;BMP180;2808;51.240;6.794;2023-08-06T14:26:14;100307.00;;;17.80
5571;BMP180;2808;51.240;6.794;2023-08-06T14:28:41;100300.00;;;17.90
5571;BMP180;2808;51.240;6.794;2023-08-06T14:31:09;100299.00;;;18.10
5571;BMP180;2808;51.240;6.794;2023-08-06T14:33:39;100300.00;;;18.20
5571;BMP180;2808;51.240;6.794;2023-08-06T14:36:06;100309.00;;;18.30